Terminal Aerodrome Forecast
Issued by NWS

Current Version | Previous Version | Text Only | Print | Product List | Glossary On
Versions: 1 2 3 4 5 6 7 8 9 10 11 12 13
000
FTUS46 KSGX 260534
TAFTRM
TAF
KTRM 260534Z 2606/2706 33015G25KT P6SM SKC
      TEMPO 2606/2610 35008KT
     FM261500 31012G20KT P6SM SCT250
     FM262300 33008KT P6SM SKC=

USA.gov is the U.S. government's official web portal to all federal, state and local government web resources and services.